aviador You're here:

PACV Decoded Metar

CORDOVA in AK, USA
Report Time2018-05-21 15:53:00
UTC Time2018-05-21 16:43:35
Flight Rules vfr VFR
Wind100° at 11 Gusting to 22 kt
W.Decomp.*RWY 09: 10.9 kt HW 1.7 kt LCW
RWY 16: 2.1 kt HW 10.8 kt LCW
W.Rank100° ranks 2
Current wind is above 100° avg. (7.8)
Visibility9656 m
Phenomena:Light Rain
Clouds:Overcast 037 Hf
Expected CloudBase > 1,200 ft AGL from Temp-Dew spread
Ceiling3,700 ft
Temp07°C (ISA -8)
Dew Point04°C (81% RH)
AAT1.7°C
QNH998 hPa
Density Alt-292 ft
Elevation39 ft
Report Wrong Elevation
Raw Report
PACV 211553Z 10011G22KT 6SM -RA OVC037 07/04 A2947 RMK AO2 PK WND
11029/1502 SLP978 P0001 T00670039 $=

Extra information for PACV:More info

Metar Taf Metar & Taf Last 4 Metars F.Rules Stats Wind Profile Meteogram Temp Stats Airport Information Weather charts Add Link Nearby VenuesMetar ALERT Operation Metar Decoded Social comments

AIRNAV info for PACV